Time;durP1;ratioP1;P1;durP2;ratioP2;P2;SDS_P1;SDS_P2;PMS_P1;PMS_P2;Temp;Humidity;BMP_temperature;BMP_pressure;BME280_temperature;BME280_humidity;BME280_pressure;Samples;Min_cycle;Max_cycle;Signal;HPM_P1;HPM_P2
2023/01/13 00:01:15;;;;;;;;;;;;;;;6.45;100.00;99940.34;4917056;29;19939;-75
2023/01/13 00:03:41;;;;;;;;;;;;;;;6.45;100.00;99935.06;4918507;29;19986;-75
2023/01/13 00:06:08;;;;;;;;;;;;;;;6.44;100.00;99939.50;4903233;29;20013;-75
2023/01/13 00:08:34;;;;;;;;;;;;;;;6.43;100.00;99927.25;4914350;28;20046;-75
2023/01/13 00:11:00;;;;;;;;;;;;;;;6.41;100.00;99931.72;4907960;28;19935;-75
2023/01/13 00:13:25;;;;;;;;;;;;;;;6.37;100.00;99923.13;4913041;28;19936;-74
2023/01/13 00:15:58;;;;;;;;;;;;;;;6.36;100.00;99925.81;4925508;28;19930;-74
2023/01/13 00:18:23;;;;;;;;;;;;;;;6.36;100.00;99936.31;4924677;28;20002;-75
2023/01/13 00:20:57;;;;;;;;;;;;;;;6.30;100.00;99945.34;4923127;28;19931;-75
2023/01/13 00:23:23;;;;;;;;;;;;;;;6.27;100.00;99942.84;4911634;29;20245;-76
2023/01/13 00:25:49;;;;;;;;;;;;;;;6.29;100.00;99948.88;4912282;28;19934;-75
2023/01/13 00:28:14;;;;;;;;;;;;;;;6.29;100.00;99948.88;4910562;29;20436;-76
2023/01/13 00:30:39;;;;;;;;;;;;;;;6.30;100.00;99949.72;4922184;28;20330;-76
2023/01/13 00:33:05;;;;;;;;;;;;;;;6.31;100.00;99949.66;4910427;28;20705;-76
2023/01/13 00:35:30;;;;;;;;;;;;;;;6.32;100.00;99948.75;4911566;29;20409;-76
2023/01/13 00:37:56;;;;;;;;;;;;;;;6.31;100.00;99944.41;4912554;28;19935;-75
2023/01/13 00:40:21;;;;;;;;;;;;;;;6.30;100.00;99936.56;4908601;29;19935;-74
2023/01/13 00:45:31;;;;;;;;;;;;;;;6.29;100.00;99933.09;4908884;29;19990;-74
2023/01/13 00:47:56;;;;;;;;;;;;;;;6.27;100.00;99929.69;4911543;29;20134;-75
2023/01/13 00:50:22;;;;;;;;;;;;;;;6.22;100.00;99915.88;4910749;29;19942;-74
2023/01/13 00:52:47;;;;;;;;;;;;;;;6.19;100.00;99930.00;4924272;28;19930;-75
2023/01/13 00:55:12;;;;;;;;;;;;;;;6.15;100.00;99935.47;4910842;28;19935;-76
2023/01/13 00:57:38;;;;;;;;;;;;;;;6.13;100.00;99935.53;4923640;28;19941;-76
2023/01/13 01:00:07;;;;;;;;;;;;;;;6.13;100.00;99932.03;4908745;29;19942;-76
2023/01/13 01:02:32;;;;;;;;;;;;;;;6.08;100.00;99925.19;4922773;28;19942;-76
2023/01/13 01:04:58;;;;;;;;;;;;;;;6.07;100.00;99930.50;4922118;28;19966;-75
2023/01/13 01:07:24;;;;;;;;;;;;;;;6.05;100.00;99930.56;4912046;29;19935;-75
2023/01/13 01:09:49;;;;;;;;;;;;;;;6.03;100.00;99927.16;4909892;29;19984;-73
2023/01/13 01:12:14;;;;;;;;;;;;;;;6.03;100.00;99935.03;4906743;29;19935;-77
2023/01/13 01:14:40;;;;;;;;;;;;;;;6.04;100.00;99923.59;4906929;29;19953;-76
2023/01/13 01:17:05;;;;;;;;;;;;;;;6.02;100.00;99920.19;4907814;29;20347;-76
2023/01/13 01:19:31;;;;;;;;;;;;;;;5.98;100.00;99929.94;4922935;28;20306;-77
2023/01/13 01:21:56;;;;;;;;;;;;;;;5.97;100.00;99930.88;4907047;29;20462;-76
2023/01/13 01:24:22;;;;;;;;;;;;;;;5.95;100.00;99937.94;4909999;29;19970;-76
2023/01/13 01:26:47;;;;;;;;;;;;;;;5.95;100.00;99929.22;4906540;29;19927;-76
2023/01/13 01:29:14;;;;;;;;;;;;;;;5.96;100.00;99934.41;4908026;29;19938;-77
2023/01/13 01:31:39;;;;;;;;;;;;;;;5.97;100.00;99930.00;4906449;29;19926;-75
2023/01/13 01:34:05;;;;;;;;;;;;;;;5.97;100.00;99932.63;4924833;28;20371;-76
2023/01/13 01:36:30;;;;;;;;;;;;;;;5.98;100.00;99926.44;4913004;29;19930;-75
2023/01/13 01:38:59;;;;;;;;;;;;;;;6.00;100.00;99927.25;4922066;28;20429;-75
2023/01/13 01:41:26;;;;;;;;;;;;;;;6.03;100.00;99928.91;4922395;28;19934;-77
2023/01/13 01:44:01;;;;;;;;;;;;;;;6.03;100.00;99929.78;4908609;29;19931;-75
2023/01/13 01:46:39;;;;;;;;;;;;;;;6.03;100.00;99935.03;4907299;28;19994;-76
2023/01/13 01:49:09;;;;;;;;;;;;;;;6.06;100.00;99937.53;4905585;29;20139;-76
2023/01/13 01:51:41;;;;;;;;;;;;;;;6.06;100.00;99932.28;4909877;29;19934;-76
2023/01/13 01:54:06;;;;;;;;;;;;;;;6.07;100.00;99935.78;4923400;28;20389;-76
2023/01/13 01:56:32;;;;;;;;;;;;;;;6.08;100.00;99925.19;4925668;28;19973;-75
2023/01/13 01:58:58;;;;;;;;;;;;;;;6.09;100.00;99919.03;4891268;29;20010;-75
2023/01/13 02:01:23;;;;;;;;;;;;;;;6.11;100.00;99932.09;4910708;29;20029;-76
2023/01/13 02:03:54;;;;;;;;;;;;;;;6.13;100.00;99921.50;4908252;29;20394;-76
2023/01/13 02:06:20;;;;;;;;;;;;;;;6.13;100.00;99913.63;4908348;29;20330;-76
2023/01/13 02:08:45;;;;;;;;;;;;;;;6.13;100.00;99917.13;4908219;29;19941;-76
2023/01/13 02:14:28;;;;;;;;;;;;;;;6.15;100.00;99898.66;4880441;29;19931;-76
2023/01/13 02:16:58;;;;;;;;;;;;;;;6.17;100.00;99888.94;4921270;28;20398;-75
2023/01/13 02:19:26;;;;;;;;;;;;;;;6.17;100.00;99888.94;4907926;29;20018;-75
2023/01/13 02:21:57;;;;;;;;;;;;;;;6.18;100.00;99885.38;4910670;29;19926;-76
2023/01/13 02:27:19;;;;;;;;;;;;;;;6.20;100.00;99873.03;4907255;29;19986;-75
2023/01/13 02:32:37;;;;;;;;;;;;;;;6.22;100.00;99873.84;4921488;28;19937;-75
2023/01/13 02:35:06;;;;;;;;;;;;;;;6.24;100.00;99861.47;4921153;28;19936;-75
2023/01/13 02:37:32;;;;;;;;;;;;;;;6.27;100.00;99866.63;4926965;28;21025;-75
2023/01/13 02:40:02;;;;;;;;;;;;;;;6.29;100.00;99854.25;4922287;28;20025;-74
2023/01/13 02:45:18;;;;;;;;;;;;;;;6.33;100.00;99853.16;4917928;28;21115;-75
2023/01/13 02:47:44;;;;;;;;;;;;;;;6.36;100.00;99842.53;4923322;28;19931;-74
2023/01/13 02:50:11;;;;;;;;;;;;;;;6.37;100.00;99846.88;4908450;29;19938;-75
2023/01/13 02:52:38;;;;;;;;;;;;;;;6.38;100.00;99842.47;4922593;28;19927;-75
2023/01/13 02:55:05;;;;;;;;;;;;;;;6.38;100.00;99838.06;4927743;28;20029;-76
2023/01/13 02:57:30;;;;;;;;;;;;;;;6.40;100.00;99845.88;4923654;28;19922;-75
2023/01/13 02:59:56;;;;;;;;;;;;;;;6.44;100.00;99841.34;4921249;28;19961;-75
2023/01/13 03:02:21;;;;;;;;;;;;;;;6.46;100.00;99844.75;4908319;29;20294;-75
2023/01/13 03:04:50;;;;;;;;;;;;;;;6.46;100.00;99842.13;4922425;28;20405;-75
2023/01/13 03:07:34;;;;;;;;;;;;;;;6.51;100.00;99848.03;4912821;29;19931;-76
2023/01/13 03:10:26;;;;;;;;;;;;;;;6.55;100.00;99838.22;4908780;29;19981;-76
2023/01/13 03:12:58;;;;;;;;;;;;;;;6.58;100.00;99833.69;4909489;29;20263;-76
2023/01/13 03:15:27;;;;;;;;;;;;;;;6.61;100.00;99841.47;4912698;29;19931;-76
2023/01/13 03:17:52;;;;;;;;;;;;;;;6.57;100.00;99837.25;4925442;28;20010;-76
2023/01/13 03:20:20;;;;;;;;;;;;;;;6.56;100.00;99835.53;4924037;28;20375;-76
2023/01/13 03:22:54;;;;;;;;;;;;;;;6.56;100.00;99835.53;4921741;28;19995;-76
2023/01/13 03:25:23;;;;;;;;;;;;;;;6.55;100.00;99827.72;4911103;29;19927;-75
2023/01/13 03:27:48;;;;;;;;;;;;;;;6.54;100.00;99826.00;4926681;28;19934;-76
2023/01/13 03:30:22;;;;;;;;;;;;;;;6.50;100.00;99827.94;4924941;28;19927;-76
2023/01/13 03:33:08;;;;;;;;;;;;;;;6.48;100.00;99816.63;4924655;28;20017;-76
2023/01/13 03:35:37;;;;;;;;;;;;;;;6.47;100.00;99815.75;4911391;29;20642;-76
2023/01/13 03:38:05;;;;;;;;;;;;;;;6.46;100.00;99818.44;4914905;29;20018;-77
2023/01/13 03:40:37;;;;;;;;;;;;;;;6.43;100.00;99814.19;4928685;28;20025;-76
2023/01/13 03:45:49;;;;;;;;;;;;;;;6.37;100.00;99812.69;4919970;28;19930;-76
2023/01/13 03:48:15;;;;;;;;;;;;;;;6.36;100.00;99807.50;4926025;28;20401;-76
2023/01/13 03:50:43;;;;;;;;;;;;;;;6.35;100.00;99811.91;4924476;28;19930;-77
2023/01/13 03:53:13;;;;;;;;;;;;;;;6.33;100.00;99803.22;4923184;28;19935;-76
2023/01/13 03:55:39;;;;;;;;;;;;;;;6.32;100.00;99813.81;4910807;29;19985;-76
2023/01/13 03:58:09;;;;;;;;;;;;;;;6.29;100.00;99801.66;4928869;28;21720;-76
2023/01/13 04:00:39;;;;;;;;;;;;;;;6.30;100.00;99799.88;4929012;28;19931;-76
2023/01/13 04:03:07;;;;;;;;;;;;;;;6.30;100.00;99795.47;4929745;28;19959;-76
2023/01/13 04:05:33;;;;;;;;;;;;;;;6.32;100.00;99798.88;4925133;28;19934;-75
2023/01/13 04:08:11;;;;;;;;;;;;;;;6.34;100.00;99794.44;4925368;28;20028;-76
2023/01/13 04:10:42;;;;;;;;;;;;;;;6.36;100.00;99796.97;4925243;28;20406;-76
2023/01/13 04:13:11;;;;;;;;;;;;;;;6.36;100.00;99787.31;4921753;28;19931;-76
2023/01/13 04:15:41;;;;;;;;;;;;;;;6.41;100.00;99789.75;4921916;28;19985;-76
2023/01/13 04:18:10;;;;;;;;;;;;;;;6.45;100.00;99800.97;4925704;28;19927;-77
2023/01/13 04:20:36;;;;;;;;;;;;;;;6.47;100.00;99797.34;4909325;29;20591;-76
2023/01/13 04:23:01;;;;;;;;;;;;;;;6.51;100.00;99800.69;4903616;29;20002;-76
2023/01/13 04:25:27;;;;;;;;;;;;;;;6.52;100.00;99799.78;4925039;28;20204;-77
2023/01/13 04:27:52;;;;;;;;;;;;;;;6.52;100.00;99802.41;4907636;29;20398;-75
2023/01/13 04:30:18;;;;;;;;;;;;;;;6.55;100.00;99796.16;4909998;29;19958;-74
2023/01/13 04:32:43;;;;;;;;;;;;;;;6.56;100.00;99798.72;4921798;28;20743;-76
2023/01/13 04:35:09;;;;;;;;;;;;;;;6.59;100.00;99803.00;4906966;29;20170;-75
2023/01/13 04:37:37;;;;;;;;;;;;;;;6.58;100.00;99802.13;4923269;28;20258;-75
2023/01/13 04:40:03;;;;;;;;;;;;;;;6.58;100.00;99802.13;4911488;29;19981;-76
2023/01/13 04:42:29;;;;;;;;;;;;;;;6.59;100.00;99795.94;4907704;29;20305;-75
2023/01/13 04:44:55;;;;;;;;;;;;;;;6.59;100.00;99787.22;4908353;29;20380;-75
2023/01/13 04:47:20;;;;;;;;;;;;;;;6.60;100.00;99792.38;4909915;29;19954;-75
2023/01/13 04:49:46;;;;;;;;;;;;;;;6.60;100.00;99797.66;4909455;29;20395;-76
2023/01/13 04:52:11;;;;;;;;;;;;;;;6.58;100.00;99799.50;4909239;29;20367;-75
2023/01/13 04:54:37;;;;;;;;;;;;;;;6.59;100.00;99798.56;4910793;29;19927;-75
2023/01/13 04:57:02;;;;;;;;;;;;;;;6.61;100.00;99798.50;4912000;29;20513;-75
2023/01/13 04:59:27;;;;;;;;;;;;;;;6.62;100.00;99798.44;4907613;29;19937;-75
2023/01/13 05:01:53;;;;;;;;;;;;;;;6.62;100.00;99779.16;4923110;28;20429;-76
2023/01/13 05:04:18;;;;;;;;;;;;;;;6.63;100.00;99800.16;4924167;28;19931;-76
2023/01/13 05:06:44;;;;;;;;;;;;;;;6.66;100.00;99804.41;4909201;29;19931;-75
2023/01/13 05:09:10;;;;;;;;;;;;;;;6.69;100.00;99798.16;4921130;28;19931;-76
2023/01/13 05:17:07;;;;;;;;;;;;;;;6.65;100.00;99798.28;4911706;29;20070;-76
2023/01/13 05:19:33;;;;;;;;;;;;;;;6.66;100.00;99784.22;4909791;29;19931;-75
2023/01/13 05:27:27;;;;;;;;;;;;;;;6.66;100.00;99792.09;4911134;29;19955;-75
2023/01/13 05:29:53;;;;;;;;;;;;;;;6.66;100.00;99783.38;4907686;29;19982;-75
2023/01/13 05:32:19;;;;;;;;;;;;;;;6.65;100.00;99761.47;4914086;29;19942;-76
2023/01/13 05:34:44;;;;;;;;;;;;;;;6.68;100.00;99791.19;4910934;29;20398;-75
2023/01/13 05:37:12;;;;;;;;;;;;;;;6.70;100.00;99779.66;4908020;29;20145;-75
2023/01/13 05:45:05;;;;;;;;;;;;;;;6.68;100.00;99781.53;4913127;29;20038;-75
2023/01/13 05:47:31;;;;;;;;;;;;;;;6.66;100.00;99791.28;4908538;29;20001;-76
2023/01/13 05:49:56;;;;;;;;;;;;;;;6.64;100.00;99785.19;4911240;29;20091;-75
2023/01/13 05:52:21;;;;;;;;;;;;;;;6.64;100.00;99783.44;4908796;29;19934;-75
2023/01/13 05:54:47;;;;;;;;;;;;;;;6.64;100.00;99783.44;4908099;29;21339;-76
2023/01/13 05:57:12;;;;;;;;;;;;;;;6.64;100.00;99787.84;4910928;29;19989;-76
2023/01/13 05:59:38;;;;;;;;;;;;;;;6.66;100.00;99789.47;4895069;29;20935;-76
2023/01/13 06:02:03;;;;;;;;;;;;;;;6.68;100.00;99786.78;4892950;29;20025;-75
2023/01/13 06:04:28;;;;;;;;;;;;;;;6.70;100.00;99792.81;4907557;28;20652;-76
2023/01/13 06:06:54;;;;;;;;;;;;;;;6.72;100.00;99787.50;4909872;29;20056;-75
2023/01/13 06:09:21;;;;;;;;;;;;;;;6.68;100.00;99778.88;4909435;29;20006;-76
2023/01/13 06:11:47;;;;;;;;;;;;;;;6.63;100.00;99772.97;4892547;29;20354;-76
2023/01/13 06:14:12;;;;;;;;;;;;;;;6.57;100.00;99789.03;4911362;29;20341;-76
2023/01/13 06:16:38;;;;;;;;;;;;;;;6.50;100.00;99786.69;4898972;29;19970;-76
2023/01/13 06:19:07;;;;;;;;;;;;;;;6.46;100.00;99787.75;4911167;29;19935;-76
2023/01/13 06:21:33;;;;;;;;;;;;;;;6.42;100.00;99778.31;4909329;29;20400;-77
2023/01/13 06:23:59;;;;;;;;;;;;;;;6.39;100.00;99787.16;4905356;29;19935;-76
2023/01/13 06:26:24;;;;;;;;;;;;;;;6.38;100.00;99795.16;4909914;29;19930;-77
2023/01/13 06:28:50;;;;;;;;;;;;;;;6.34;100.00;99797.06;4894781;29;19931;-75
2023/01/13 06:31:15;;;;;;;;;;;;;;;6.29;100.00;99800.81;4909737;28;19934;-76
2023/01/13 06:33:45;;;;;;;;;;;;;;;6.24;100.00;99793.13;4908455;29;19931;-76
2023/01/13 06:36:12;;;;;;;;;;;;;;;6.18;100.00;99804.78;4894566;29;20458;-77
2023/01/13 06:38:38;;;;;;;;;;;;;;;6.14;100.00;99803.19;4892733;29;20409;-77
2023/01/13 06:41:05;;;;;;;;;;;;;;;6.09;100.00;99816.53;4913187;29;19934;-76
2023/01/13 06:43:30;;;;;;;;;;;;;;;6.04;100.00;99812.41;4912612;29;20434;-76
2023/01/13 06:45:55;;;;;;;;;;;;;;;5.98;100.00;99805.59;4914784;29;19938;-76
2023/01/13 06:48:22;;;;;;;;;;;;;;;5.94;100.00;99812.75;4896722;29;19931;-76
2023/01/13 06:50:47;;;;;;;;;;;;;;;5.90;100.00;99813.81;4912150;29;20643;-77
2023/01/13 06:53:13;;;;;;;;;;;;;;;5.88;100.00;99809.53;4915459;29;20558;-76
2023/01/13 06:55:38;;;;;;;;;;;;;;;5.87;100.00;99810.47;4915955;29;19938;-77
2023/01/13 06:58:04;;;;;;;;;;;;;;;5.85;100.00;99819.25;4910122;28;19930;-76
2023/01/13 07:00:31;;;;;;;;;;;;;;;5.85;100.00;99818.41;4899511;29;20485;-76
2023/01/13 07:03:08;;;;;;;;;;;;;;;5.82;100.00;99822.00;4913478;29;20409;-76
2023/01/13 07:05:37;;;;;;;;;;;;;;;5.83;100.00;99825.50;4911453;29;20466;-76
2023/01/13 07:08:02;;;;;;;;;;;;;;;5.81;100.00;99812.44;4914320;29;20303;-76
2023/01/13 07:10:28;;;;;;;;;;;;;;;5.78;100.00;99790.69;4892647;29;19950;-74
2023/01/13 07:15:38;;;;;;;;;;;;;;;5.77;100.00;99792.44;4907177;29;19931;-73
2023/01/13 07:18:03;;;;;;;;;;;;;;;5.78;100.00;99793.31;4912821;29;19935;-73
2023/01/13 07:20:29;;;;;;;;;;;;;;;5.76;100.00;99796.00;4893849;29;20381;-73
2023/01/13 07:22:55;;;;;;;;;;;;;;;5.78;100.00;99793.31;4906676;29;19934;-73
2023/01/13 07:25:20;;;;;;;;;;;;;;;5.80;100.00;99794.97;4913254;29;19931;-75
2023/01/13 07:27:46;;;;;;;;;;;;;;;5.81;100.00;99806.31;4914109;29;20051;-73
2023/01/13 07:30:11;;;;;;;;;;;;;;;5.82;100.00;99801.00;4909110;29;19942;-74
2023/01/13 07:32:36;;;;;;;;;;;;;;;5.85;100.00;99798.22;4906302;29;20025;-74
2023/01/13 07:35:05;;;;;;;;;;;;;;;5.89;100.00;99792.84;4907592;29;20343;-74
2023/01/13 07:37:34;;;;;;;;;;;;;;;5.91;100.00;99794.50;4900664;28;19977;-75
2023/01/13 07:39:59;;;;;;;;;;;;;;;5.95;100.00;99798.69;4884075;29;19946;-74
2023/01/13 07:45:14;;;;;;;;;;;;;;;6.01;100.00;99800.22;4902933;29;21835;-75
2023/01/13 07:47:40;;;;;;;;;;;;;;;6.04;100.00;99801.91;4901753;29;19935;-75
2023/01/13 07:50:06;;;;;;;;;;;;;;;6.06;100.00;99807.94;4899339;29;20113;-75
2023/01/13 07:52:31;;;;;;;;;;;;;;;6.07;100.00;99807.00;4888526;29;19954;-75
2023/01/13 07:54:57;;;;;;;;;;;;;;;6.13;100.00;99795.34;4902247;29;19934;-75
2023/01/13 07:57:22;;;;;;;;;;;;;;;6.14;100.00;99803.19;4888185;29;19938;-75
2023/01/13 07:59:47;;;;;;;;;;;;;;;6.17;100.00;99792.56;4903957;29;20039;-75
2023/01/13 08:02:13;;;;;;;;;;;;;;;6.21;100.00;99815.13;4905151;29;19941;-75
2023/01/13 08:04:39;;;;;;;;;;;;;;;6.24;100.00;99807.13;4907601;29;20414;-75
2023/01/13 08:07:05;;;;;;;;;;;;;;;6.27;100.00;99808.78;4891434;29;20318;-76
2023/01/13 08:09:30;;;;;;;;;;;;;;;6.30;100.00;99808.63;4904779;29;19931;-76
2023/01/13 08:14:40;;;;;;;;;;;;;;;6.36;100.00;99810.13;4847068;29;1820929;-75
2023/01/13 08:17:06;;;;;;;;;;;;;;;6.38;100.00;99817.03;4907775;29;20345;-76
2023/01/13 08:19:32;;;;;;;;;;;;;;;6.41;100.00;99820.44;4905163;29;20266;-75
2023/01/13 08:21:57;;;;;;;;;;;;;;;6.42;100.00;99811.66;4908304;29;20254;-75
2023/01/13 08:24:23;;;;;;;;;;;;;;;6.43;100.00;99821.22;4905444;29;19985;-76
2023/01/13 08:26:48;;;;;;;;;;;;;;;6.47;100.00;99825.41;4910558;29;20363;-75
2023/01/13 08:29:13;;;;;;;;;;;;;;;6.47;100.00;99836.81;4887881;29;20571;-75
2023/01/13 08:31:39;;;;;;;;;;;;;;;6.51;100.00;99829.63;4887127;29;20086;-76
2023/01/13 08:34:04;;;;;;;;;;;;;;;6.54;100.00;99837.38;4905501;29;20182;-75
2023/01/13 08:36:30;;;;;;;;;;;;;;;6.55;100.00;99848.75;4906507;29;20800;-76
2023/01/13 08:38:55;;;;;;;;;;;;;;;6.52;100.00;99840.09;4899237;29;20065;-75
2023/01/13 08:41:53;;;;;;;;;;;;;;;6.45;100.00;99845.69;4899445;29;19942;-75
2023/01/13 08:44:08;;;;;;;;;;;;;;;6.35;100.00;99853.13;4905099;29;19950;-75
2023/01/13 08:46:33;;;;;;;;;;;;;;;6.22;100.00;99855.44;4905092;29;20008;-75
2023/01/13 08:48:59;;;;;;;;;;;;;;;6.13;100.00;99843.53;4888649;29;19976;-74
2023/01/13 08:51:24;;;;;;;;;;;;;;;6.05;100.00;99838.59;4906881;29;19937;-75
2023/01/13 08:53:50;;;;;;;;;;;;;;;6.00;100.00;99842.31;4901907;29;20399;-76
2023/01/13 08:56:15;;;;;;;;;;;;;;;5.96;100.00;99852.09;4888013;29;20573;-75
2023/01/13 08:58:41;;;;;;;;;;;;;;;5.94;100.00;99859.19;4902731;28;19963;-74
2023/01/13 09:01:07;;;;;;;;;;;;;;;5.95;100.00;99853.03;4905554;29;20966;-75
2023/01/13 09:03:33;;;;;;;;;;;;;;;5.95;100.00;99860.91;4903566;29;19934;-75
2023/01/13 09:05:58;;;;;;;;;;;;;;;5.97;100.00;99885.34;4907808;29;19927;-75
2023/01/13 09:08:23;;;;;;;;;;;;;;;5.97;100.00;99901.97;4904566;29;19934;-76
2023/01/13 09:10:49;;;;;;;;;;;;;;;5.96;100.00;99878.38;4907354;29;20545;-74
2023/01/13 09:13:15;;;;;;;;;;;;;;;5.92;100.00;99880.28;4890754;29;20123;-74
2023/01/13 09:15:43;;;;;;;;;;;;;;;5.90;100.00;99881.25;4894641;29;19930;-76
2023/01/13 09:18:08;;;;;;;;;;;;;;;5.87;100.00;99895.38;4917618;28;19926;-75
2023/01/13 09:20:34;;;;;;;;;;;;;;;5.88;100.00;99901.50;4903177;29;19961;-74
2023/01/13 09:22:59;;;;;;;;;;;;;;;5.90;100.00;99897.00;4923291;28;19954;-75
2023/01/13 09:25:25;;;;;;;;;;;;;;;5.92;100.00;99896.03;4920668;28;20593;-75
2023/01/13 09:27:50;;;;;;;;;;;;;;;5.94;100.00;99901.25;4919631;28;19926;-74
2023/01/13 09:30:15;;;;;;;;;;;;;;;5.96;100.00;99909.91;4918046;28;20017;-74
2023/01/13 09:32:41;;;;;;;;;;;;;;;5.96;100.00;99912.53;4924661;28;19931;-74
2023/01/13 09:35:06;;;;;;;;;;;;;;;5.97;100.00;99911.63;4915797;28;19931;-76
2023/01/13 09:37:34;;;;;;;;;;;;;;;5.96;100.00;99910.78;4918092;28;19927;-75
2023/01/13 09:39:59;;;;;;;;;;;;;;;5.94;100.00;99912.59;4916215;28;20021;-76
2023/01/13 09:45:21;;;;;;;;;;;;;;;5.92;100.00;99916.19;4919622;28;19943;-75
2023/01/13 09:47:59;;;;;;;;;;;;;;;5.92;100.00;99909.19;4923072;28;20279;-75
2023/01/13 09:50:29;;;;;;;;;;;;;;;5.93;100.00;99925.78;4910689;29;19934;-75
2023/01/13 09:52:55;;;;;;;;;;;;;;;5.94;100.00;99927.50;4909092;29;20569;-74
2023/01/13 09:55:32;;;;;;;;;;;;;;;5.95;100.00;99942.34;4920489;28;19953;-75
2023/01/13 09:57:57;;;;;;;;;;;;;;;5.97;100.00;99937.88;4920962;28;20013;-76
2023/01/13 10:00:23;;;;;;;;;;;;;;;6.01;100.00;99931.59;4923662;28;20596;-77
2023/01/13 10:02:48;;;;;;;;;;;;;;;6.05;100.00;99927.94;4912840;28;19941;-76
2023/01/13 10:05:14;;;;;;;;;;;;;;;6.08;100.00;99930.47;4898752;29;19930;-76
2023/01/13 10:07:47;;;;;;;;;;;;;;;6.15;100.00;99935.47;4899628;29;20026;-76
2023/01/13 10:10:14;;;;;;;;;;;;;;;6.18;100.00;99941.44;4907456;28;19927;-76
2023/01/13 10:15:28;;;;;;;;;;;;;;;6.23;100.00;99944.72;4913202;28;19946;-76
2023/01/13 10:17:59;;;;;;;;;;;;;;;6.28;100.00;99949.81;4899923;28;19957;-76
2023/01/13 10:20:26;;;;;;;;;;;;;;;6.30;100.00;99960.22;4885576;29;19969;-76
2023/01/13 10:23:21;;;;;;;;;;;;;;;6.31;100.00;99951.47;4880578;29;20121;-76
2023/01/13 10:25:46;;;;;;;;;;;;;;;6.33;100.00;99960.13;4873800;29;20620;-76
2023/01/13 10:28:13;;;;;;;;;;;;;;;6.35;100.00;99959.16;4894779;29;20583;-76
2023/01/13 10:30:48;;;;;;;;;;;;;;;6.38;100.00;99959.00;4898203;29;19931;-76
2023/01/13 10:33:23;;;;;;;;;;;;;;;6.43;100.00;99957.97;4898071;29;19930;-76
2023/01/13 10:35:58;;;;;;;;;;;;;;;6.46;100.00;99970.97;4895994;29;19931;-76
2023/01/13 10:38:29;;;;;;;;;;;;;;;6.49;100.00;99960.34;4891895;29;19933;-76
2023/01/13 10:41:18;;;;;;;;;;;;;;;6.54;100.00;99962.75;4896180;29;19986;-76
2023/01/13 10:43:44;;;;;;;;;;;;;;;6.57;100.00;99965.25;4897464;29;19931;-75
2023/01/13 10:46:16;;;;;;;;;;;;;;;6.58;100.00;99980.97;4878656;29;20432;-76
2023/01/13 10:48:44;;;;;;;;;;;;;;;6.58;100.00;99974.88;4894813;29;20225;-75
2023/01/13 10:51:13;;;;;;;;;;;;;;;6.56;100.00;99972.31;4880578;29;19934;-76
2023/01/13 10:53:52;;;;;;;;;;;;;;;6.57;100.00;99971.38;4894660;29;21878;-75
2023/01/13 10:56:18;;;;;;;;;;;;;;;6.58;100.00;99975.72;4896986;29;19938;-76
2023/01/13 10:58:44;;;;;;;;;;;;;;;6.62;100.00;99995.72;4898540;29;20053;-75
2023/01/13 11:01:17;;;;;;;;;;;;;;;6.68;100.00;99981.44;4902101;29;20375;-75
2023/01/13 11:03:47;;;;;;;;;;;;;;;6.72;100.00;99988.28;4900007;29;20398;-77
2023/01/13 11:06:19;;;;;;;;;;;;;;;6.76;100.00;99991.63;4908405;28;19931;-76
2023/01/13 11:08:46;;;;;;;;;;;;;;;6.78;100.00;99998.53;4903614;29;20097;-76
2023/01/13 11:11:30;;;;;;;;;;;;;;;6.83;100.00;100006.25;4905306;29;19978;-76
2023/01/13 11:16:41;;;;;;;;;;;;;;;6.90;100.00;100002.41;4908552;29;19934;-76
2023/01/13 11:19:12;;;;;;;;;;;;;;;6.94;100.00;100013.66;4905036;29;19930;-76
2023/01/13 11:21:49;;;;;;;;;;;;;;;6.97;100.00;100010.03;4922296;28;19927;-76
2023/01/13 11:24:17;;;;;;;;;;;;;;;6.99;100.00;100021.34;4905570;29;20579;-76
2023/01/13 11:26:45;;;;;;;;;;;;;;;6.98;100.00;100011.75;4923644;28;20114;-76
2023/01/13 11:29:17;;;;;;;;;;;;;;;6.92;100.00;100018.97;4907144;29;20537;-76
2023/01/13 11:31:44;;;;;;;;;;;;;;;6.92;100.00;99997.94;4924798;28;19931;-76
2023/01/13 11:34:16;;;;;;;;;;;;;;;6.91;100.00;100019.91;4922693;28;19931;-76
2023/01/13 11:36:49;;;;;;;;;;;;;;;6.95;100.00;100019.75;4924688;28;20570;-76
2023/01/13 11:39:19;;;;;;;;;;;;;;;6.95;100.00;100011.88;4921725;28;19938;-76
2023/01/13 11:42:19;;;;;;;;;;;;;;;6.96;100.00;100011.81;4909209;29;20240;-76
2023/01/13 11:44:48;;;;;;;;;;;;;;;6.96;100.00;100010.97;4911618;28;19935;-76
2023/01/13 11:47:14;;;;;;;;;;;;;;;6.96;100.00;100021.50;4925347;28;19934;-76
2023/01/13 11:49:39;;;;;;;;;;;;;;;6.96;100.00;100022.34;4910601;29;19930;-76
2023/01/13 11:52:20;;;;;;;;;;;;;;;6.97;100.00;100033.72;4907472;29;19930;-76
2023/01/13 11:54:57;;;;;;;;;;;;;;;6.99;100.00;100038.00;4907792;29;19965;-76
2023/01/13 11:57:36;;;;;;;;;;;;;;;7.03;100.00;100044.84;4910222;29;19938;-76
2023/01/13 12:00:07;;;;;;;;;;;;;;;7.06;100.00;100059.63;4924171;28;20627;-76
2023/01/13 12:02:36;;;;;;;;;;;;;;;7.05;100.00;100036.88;4909102;29;19985;-76
2023/01/13 12:05:10;;;;;;;;;;;;;;;7.03;100.00;100046.63;4907334;29;20559;-76
2023/01/13 12:07:43;;;;;;;;;;;;;;;7.02;100.00;100058.91;4921021;28;20002;-76
2023/01/13 12:10:12;;;;;;;;;;;;;;;7.05;100.00;100071.09;4907865;29;20082;-75
2023/01/13 12:13:02;;;;;;;;;;;;;;;7.08;100.00;100052.53;4917675;28;20069;-75
2023/01/13 12:15:46;;;;;;;;;;;;;;;7.10;100.00;100060.38;4906894;29;19930;-76
2023/01/13 12:18:12;;;;;;;;;;;;;;;7.12;100.00;100054.13;4921548;28;20388;-74
2023/01/13 12:20:46;;;;;;;;;;;;;;;7.09;100.00;100059.53;4908742;29;19931;-74
2023/01/13 12:23:26;;;;;;;;;;;;;;;7.09;100.00;100091.13;4906708;29;19931;-74
2023/01/13 12:25:53;;;;;;;;;;;;;;;7.14;100.00;100077.75;4922159;28;20094;-75
2023/01/13 12:28:21;;;;;;;;;;;;;;;7.14;100.00;100089.13;4907763;29;20461;-74
2023/01/13 12:30:51;;;;;;;;;;;;;;;7.14;100.00;100083.84;4908950;29;20689;-76
2023/01/13 12:33:49;;;;;;;;;;;;;;;7.17;100.00;100099.53;4922717;28;19935;-74
2023/01/13 12:36:24;;;;;;;;;;;;;;;7.18;100.00;100106.50;4906076;29;19974;-74
2023/01/13 12:39:05;;;;;;;;;;;;;;;7.18;100.00;100095.09;4921052;28;20287;-75
2023/01/13 12:44:33;;;;;;;;;;;;;;;7.13;100.00;100094.47;4910144;29;19935;-75
2023/01/13 12:46:59;;;;;;;;;;;;;;;7.11;100.00;100105.06;4922751;28;19938;-75
2023/01/13 12:49:25;;;;;;;;;;;;;;;7.14;100.00;100104.91;4923911;28;19931;-75
2023/01/13 12:51:51;;;;;;;;;;;;;;;7.15;100.00;100106.63;4923095;28;19938;-74
2023/01/13 12:54:35;;;;;;;;;;;;;;;7.16;100.00;100095.19;4920553;28;20299;-74
2023/01/13 12:57:00;;;;;;;;;;;;;;;7.18;100.00;100118.78;4923150;28;19927;-75
2023/01/13 12:59:26;;;;;;;;;;;;;;;7.22;100.00;100119.53;4924722;28;20346;-74
2023/01/13 13:02:10;;;;;;;;;;;;;;;7.22;100.00;100116.88;4908801;29;19931;-76
2023/01/13 13:04:44;;;;;;;;;;;;;;;7.19;100.00;100126.63;4923577;28;20350;-76
2023/01/13 13:07:12;;;;;;;;;;;;;;;7.19;100.00;100110.84;4921758;28;20026;-76
2023/01/13 13:09:42;;;;;;;;;;;;;;;7.18;100.00;100131.97;4904352;29;20362;-75
2023/01/13 13:15:21;;;;;;;;;;;;;;;7.16;100.00;100145.22;4862741;29;19931;-76
2023/01/13 13:18:07;;;;;;;;;;;;;;;7.18;100.00;100117.03;4904704;29;20057;-75
2023/01/13 13:20:52;;;;;;;;;;;;;;;7.22;100.00;100137.94;4904776;29;20553;-75
2023/01/13 13:23:28;;;;;;;;;;;;;;;7.25;100.00;100156.25;4903375;29;20173;-76
2023/01/13 13:26:20;;;;;;;;;;;;;;;7.27;100.00;100141.25;4901725;29;20531;-75
2023/01/13 13:28:48;;;;;;;;;;;;;;;7.26;100.00;100145.69;4904093;29;19930;-75
2023/01/13 13:31:33;;;;;;;;;;;;;;;7.28;100.00;100164.03;4901816;28;19927;-75
2023/01/13 13:34:02;;;;;;;;;;;;;;;7.28;100.00;100175.41;4904467;29;19927;-75
2023/01/13 13:36:27;;;;;;;;;;;;;;;7.30;100.00;100159.56;4903329;29;19982;-75
2023/01/13 13:47:08;;;;;;;;;;;;;;;7.29;100.00;100168.34;4905101;29;20018;-74
2023/01/13 13:49:42;;;;;;;;;;;;;;;7.29;100.00;100171.00;4892969;29;20379;-74
2023/01/13 13:52:09;;;;;;;;;;;;;;;7.31;100.00;100184.97;4905275;29;19969;-74
2023/01/13 13:54:36;;;;;;;;;;;;;;;7.30;100.00;100189.38;4896989;29;19937;-74
2023/01/13 13:57:01;;;;;;;;;;;;;;;7.29;100.00;100184.16;4890668;29;20400;-75